createdAt,value
2022-10-20T00:02:33.105Z,100654.13
2022-10-20T00:05:19.433Z,100652.00
2022-10-20T00:08:05.309Z,100650.66
2022-10-20T00:10:58.216Z,100648.19
2022-10-20T00:13:45.079Z,100653.81
2022-10-20T00:16:32.375Z,100657.66
2022-10-20T00:19:17.997Z,100653.31
2022-10-20T00:22:04.669Z,100660.81
2022-10-20T00:24:51.706Z,100664.81
2022-10-20T00:27:37.951Z,100661.66
2022-10-20T00:30:25.087Z,100669.84
2022-10-20T00:33:12.306Z,100673.06
2022-10-20T00:35:59.402Z,100674.47
2022-10-20T00:38:45.437Z,100669.28
2022-10-20T00:41:33.644Z,100673.31
2022-10-20T00:44:40.573Z,100672.44
2022-10-20T00:47:32.563Z,100679.00
2022-10-20T00:50:21.197Z,100674.31
2022-10-20T00:53:07.045Z,100683.12
2022-10-20T00:55:54.154Z,100686.81
2022-10-20T00:58:40.047Z,100680.63
2022-10-20T01:01:26.366Z,100684.00
2022-10-20T01:04:13.664Z,100680.69
2022-10-20T01:06:59.809Z,100681.59
2022-10-20T01:09:46.862Z,100679.12
2022-10-20T01:12:36.070Z,100682.13
2022-10-20T01:15:27.355Z,100680.69
2022-10-20T01:18:26.255Z,100675.41
2022-10-20T01:21:31.011Z,100677.91
2022-10-20T01:24:39.018Z,100674.09
2022-10-20T01:27:35.939Z,100674.72
2022-10-20T01:30:22.807Z,100670.72
2022-10-20T01:33:11.880Z,100673.94
2022-10-20T01:36:17.151Z,100681.84
2022-10-20T01:39:08.154Z,100690.03
2022-10-20T01:41:56.684Z,100685.41
2022-10-20T01:44:44.051Z,100689.91
2022-10-20T01:47:30.366Z,100688.13
2022-10-20T01:50:17.651Z,100698.69
2022-10-20T01:53:04.682Z,100694.47
2022-10-20T01:55:52.862Z,100685.53
2022-10-20T01:58:48.017Z,100682.22
2022-10-20T02:01:41.683Z,100687.63
2022-10-20T02:04:30.685Z,100687.28
2022-10-20T02:07:18.076Z,100690.69
2022-10-20T02:10:15.726Z,100690.53
2022-10-20T02:13:03.330Z,100688.56
2022-10-20T02:15:54.021Z,100685.91
2022-10-20T02:18:40.944Z,100691.78
2022-10-20T02:21:27.725Z,100692.44
2022-10-20T02:24:13.865Z,100695.63
2022-10-20T02:27:01.374Z,100698.94
2022-10-20T02:29:49.052Z,100699.91
2022-10-20T02:32:36.326Z,100694.91
2022-10-20T02:35:23.787Z,100697.00
2022-10-20T02:38:10.985Z,100702.09
2022-10-20T02:40:56.757Z,100697.13
2022-10-20T02:43:43.609Z,100700.09
2022-10-20T02:46:30.413Z,100702.63
2022-10-20T02:49:16.944Z,100706.66
2022-10-20T02:52:03.083Z,100706.53
2022-10-20T02:54:55.542Z,100714.09
2022-10-20T02:57:41.363Z,100712.06
2022-10-20T03:00:31.121Z,100716.59
2022-10-20T03:03:18.713Z,100708.06
2022-10-20T03:06:11.042Z,100708.28
2022-10-20T03:08:57.982Z,100715.31
2022-10-20T03:11:44.209Z,100716.44
2022-10-20T03:14:30.169Z,100721.25
2022-10-20T03:17:17.960Z,100721.09
2022-10-20T03:20:05.583Z,100716.69
2022-10-20T03:22:53.410Z,100724.06
2022-10-20T03:25:40.601Z,100726.44
2022-10-20T03:28:26.912Z,100729.88
2022-10-20T03:31:14.553Z,100717.84
2022-10-20T03:34:00.913Z,100727.44
2022-10-20T03:36:48.976Z,100723.84
2022-10-20T03:39:40.516Z,100734.50
2022-10-20T03:42:31.784Z,100719.66
2022-10-20T03:45:19.221Z,100727.16
2022-10-20T03:48:08.546Z,100734.00
2022-10-20T03:51:03.003Z,100730.56
2022-10-20T03:53:52.858Z,100741.03
2022-10-20T03:56:40.610Z,100741.84
2022-10-20T03:59:29.592Z,100743.88
2022-10-20T04:02:33.866Z,100739.47
2022-10-20T04:05:22.152Z,100730.44
2022-10-20T04:08:12.863Z,100735.84
2022-10-20T04:11:00.067Z,100731.16
2022-10-20T04:13:46.545Z,100729.47
2022-10-20T04:16:33.342Z,100735.09
2022-10-20T04:19:19.986Z,100728.87
2022-10-20T04:22:08.652Z,100729.88
2022-10-20T04:24:59.166Z,100727.97
2022-10-20T04:27:47.614Z,100726.28
2022-10-20T04:30:34.070Z,100719.22
2022-10-20T04:33:28.777Z,100724.19
2022-10-20T04:36:15.488Z,100729.72
2022-10-20T04:39:06.633Z,100736.66
2022-10-20T04:41:56.921Z,100732.13
2022-10-20T04:44:44.142Z,100723.28
2022-10-20T04:47:34.016Z,100725.19
2022-10-20T04:50:22.079Z,100729.28
2022-10-20T04:53:25.894Z,100731.75
2022-10-20T04:56:19.859Z,100731.25
2022-10-20T04:59:09.662Z,100728.44
2022-10-20T05:02:10.470Z,100735.06
2022-10-20T05:04:57.416Z,100737.28
2022-10-20T05:07:45.713Z,100731.69
2022-10-20T05:10:39.983Z,100745.22
2022-10-20T05:13:27.852Z,100750.91
2022-10-20T05:16:17.608Z,100752.41
2022-10-20T05:19:06.677Z,100759.22
2022-10-20T05:21:57.479Z,100752.63
2022-10-20T05:24:44.608Z,100762.69
2022-10-20T05:27:31.696Z,100764.28
2022-10-20T05:30:18.363Z,100757.12
2022-10-20T05:33:06.041Z,100764.06
2022-10-20T05:35:54.766Z,100779.06
2022-10-20T05:38:41.262Z,100780.78
2022-10-20T05:41:33.497Z,100790.50
2022-10-20T05:44:24.054Z,100790.22
2022-10-20T05:47:14.676Z,100798.94
2022-10-20T05:50:03.509Z,100803.37
2022-10-20T05:52:53.229Z,100805.59
2022-10-20T05:55:40.631Z,100804.06
2022-10-20T05:58:38.518Z,100816.94
2022-10-20T06:01:27.028Z,100819.31
2022-10-20T06:04:25.503Z,100809.87
2022-10-20T06:07:18.591Z,100824.50
2022-10-20T06:10:07.740Z,100814.44
2022-10-20T06:12:55.027Z,100831.28
2022-10-20T06:15:49.371Z,100833.50
2022-10-20T06:18:40.410Z,100830.37
2022-10-20T06:21:29.448Z,100836.66
2022-10-20T06:24:18.772Z,100840.19
2022-10-20T06:27:05.155Z,100843.72
2022-10-20T06:29:54.860Z,100850.63
2022-10-20T06:32:44.854Z,100843.84
2022-10-20T06:35:33.574Z,100850.22
2022-10-20T06:38:19.768Z,100856.50
2022-10-20T06:41:08.845Z,100850.69
2022-10-20T06:43:59.374Z,100858.16
2022-10-20T06:46:46.028Z,100853.34
2022-10-20T06:49:39.566Z,100851.50
2022-10-20T06:52:26.930Z,100862.31
2022-10-20T06:55:15.305Z,100868.38
2022-10-20T06:58:03.055Z,100864.97
2022-10-20T07:01:11.077Z,100858.66
2022-10-20T07:04:00.697Z,100866.06
2022-10-20T07:06:48.465Z,100875.22
2022-10-20T07:09:35.224Z,100866.09
2022-10-20T07:12:21.560Z,100867.69
2022-10-20T07:15:09.453Z,100870.69
2022-10-20T07:17:57.003Z,100877.84
2022-10-20T07:20:43.704Z,100876.12
2022-10-20T07:23:32.611Z,100879.75
2022-10-20T07:26:24.797Z,100876.53
2022-10-20T07:29:11.931Z,100874.91
2022-10-20T07:32:01.424Z,100880.09
2022-10-20T07:34:51.228Z,100884.47
2022-10-20T07:37:38.630Z,100882.59
2022-10-20T07:40:31.731Z,100883.56
2022-10-20T07:43:20.208Z,100885.84
2022-10-20T07:46:08.552Z,100886.31
2022-10-20T07:52:07.730Z,100893.97
2022-10-20T07:55:01.615Z,100896.62
2022-10-20T07:58:00.709Z,100899.16
2022-10-20T08:00:53.986Z,100885.06
2022-10-20T08:03:42.531Z,100889.09
2022-10-20T08:06:29.640Z,100885.91
2022-10-20T08:09:16.257Z,100885.19
2022-10-20T08:12:04.641Z,100891.28
2022-10-20T08:14:52.144Z,100888.31
2022-10-20T08:17:40.537Z,100894.56
2022-10-20T08:20:30.309Z,100893.88
2022-10-20T08:23:18.336Z,100897.06
2022-10-20T08:26:09.052Z,100898.19
2022-10-20T08:28:56.971Z,100903.56
2022-10-20T08:31:46.403Z,100907.06
2022-10-20T08:34:32.879Z,100894.37
2022-10-20T08:37:19.723Z,100901.81
2022-10-20T08:43:17.671Z,100903.12
2022-10-20T08:46:16.533Z,100894.84
2022-10-20T08:49:06.294Z,100904.31
2022-10-20T08:51:55.006Z,100906.31
2022-10-20T08:54:42.285Z,100897.19
2022-10-20T08:57:34.563Z,100901.66
2022-10-20T09:00:25.638Z,100901.97
2022-10-20T09:03:27.734Z,100896.25
2022-10-20T09:06:16.508Z,100896.84
2022-10-20T09:09:04.014Z,100898.59
2022-10-20T09:11:51.546Z,100898.22
2022-10-20T09:14:38.132Z,100902.00
2022-10-20T09:17:26.002Z,100896.06
2022-10-20T09:20:23.936Z,100902.16
2022-10-20T09:23:41.488Z,100897.78
2022-10-20T09:29:48.630Z,100897.75
2022-10-20T09:32:52.908Z,100899.62
2022-10-20T09:35:41.416Z,100899.94
2022-10-20T09:38:30.429Z,100907.72
2022-10-20T09:41:22.440Z,100909.03
2022-10-20T09:44:15.134Z,100902.91
2022-10-20T09:47:02.900Z,100899.13
2022-10-20T09:49:50.515Z,100894.34
2022-10-20T09:52:47.318Z,100896.44
2022-10-20T09:55:41.477Z,100902.81
2022-10-20T09:58:29.990Z,100890.16
2022-10-20T10:04:12.387Z,100891.94
2022-10-20T10:06:59.060Z,100893.88
2022-10-20T10:09:50.870Z,100892.75
2022-10-20T10:12:40.149Z,100895.22
2022-10-20T10:15:31.321Z,100892.72
2022-10-20T10:18:21.859Z,100892.44
2022-10-20T10:21:09.904Z,100880.34
2022-10-20T10:24:06.689Z,100877.41
2022-10-20T10:26:55.721Z,100883.97
2022-10-20T10:29:43.804Z,100874.22
2022-10-20T10:32:30.905Z,100870.41
2022-10-20T10:35:29.339Z,100867.03
2022-10-20T10:38:18.040Z,100867.09
2022-10-20T10:41:11.566Z,100870.87
2022-10-20T10:44:08.074Z,100859.12
2022-10-20T10:46:54.896Z,100851.75
2022-10-20T10:49:42.050Z,100851.75
2022-10-20T10:53:01.902Z,100848.09
2022-10-20T10:55:58.351Z,100841.97
2022-10-20T10:58:59.654Z,100834.44
2022-10-20T11:01:57.849Z,100832.59
2022-10-20T11:05:00.693Z,100830.81
2022-10-20T11:07:51.959Z,100821.59
2022-10-20T11:10:44.585Z,100816.03
2022-10-20T11:13:38.054Z,100808.03
2022-10-20T11:16:27.342Z,100814.59
2022-10-20T11:19:14.099Z,100806.56
2022-10-20T11:22:09.433Z,100804.03
2022-10-20T11:25:23.671Z,100801.34
2022-10-20T11:28:21.754Z,100802.75
2022-10-20T11:31:10.142Z,100796.87
2022-10-20T11:34:19.767Z,100791.34
2022-10-20T11:37:08.186Z,100789.87
2022-10-20T11:40:15.722Z,100791.84
2022-10-20T11:43:32.475Z,100778.88
2022-10-20T11:46:27.605Z,100781.56
2022-10-20T11:49:15.220Z,100776.25
2022-10-20T11:52:07.506Z,100767.38
2022-10-20T11:54:58.338Z,100773.75
2022-10-20T11:58:08.820Z,100770.75
2022-10-20T12:00:59.566Z,100770.56
2022-10-20T12:03:48.473Z,100763.06
2022-10-20T12:06:40.566Z,100756.38
2022-10-20T12:09:45.688Z,100762.16
2022-10-20T12:12:36.046Z,100767.81
2022-10-20T12:15:27.896Z,100765.25
2022-10-20T12:18:35.545Z,100759.94
2022-10-20T12:21:43.686Z,100757.16
2022-10-20T12:24:37.635Z,100741.38
2022-10-20T12:27:27.998Z,100755.53
2022-10-20T12:30:17.973Z,100742.56
2022-10-20T12:33:18.533Z,100742.75
2022-10-20T12:36:17.264Z,100743.62
2022-10-20T12:42:05.400Z,100729.16
2022-10-20T12:45:02.725Z,100732.34
2022-10-20T12:47:51.498Z,100726.56
2022-10-20T12:50:40.859Z,100719.09
2022-10-20T12:53:32.771Z,100717.12
2022-10-20T12:56:21.501Z,100713.59
2022-10-20T12:59:34.421Z,100709.34
2022-10-20T13:02:24.934Z,100701.81
2022-10-20T13:05:14.664Z,100709.00
2022-10-20T13:08:06.502Z,100693.97
2022-10-20T13:11:26.771Z,100702.59
2022-10-20T13:14:37.133Z,100700.00
2022-10-20T13:17:27.816Z,100702.13
2022-10-20T13:20:36.734Z,100703.59
2022-10-20T13:23:33.585Z,100689.81
2022-10-20T13:26:22.539Z,100705.81
2022-10-20T13:29:14.782Z,100712.81
2022-10-20T13:35:08.763Z,100691.69
2022-10-20T13:38:03.490Z,100690.56
2022-10-20T13:44:09.846Z,100681.66
2022-10-20T13:47:18.421Z,100686.88
2022-10-20T13:50:12.530Z,100681.47
2022-10-20T13:53:05.720Z,100684.53
2022-10-20T13:55:58.937Z,100677.13
2022-10-20T13:59:08.555Z,100675.75
2022-10-20T14:02:04.572Z,100681.06
2022-10-20T14:05:09.807Z,100675.69
2022-10-20T14:08:03.259Z,100676.44
2022-10-20T14:10:55.559Z,100666.69
2022-10-20T14:13:52.246Z,100666.25
2022-10-20T14:16:47.973Z,100671.69
2022-10-20T14:19:35.758Z,100659.53
2022-10-20T14:22:23.781Z,100663.38
2022-10-20T14:28:11.701Z,100658.19
2022-10-20T14:30:57.574Z,100660.31
2022-10-20T14:33:48.681Z,100663.69
2022-10-20T14:36:35.557Z,100658.81
2022-10-20T14:39:32.595Z,100661.88
2022-10-20T14:42:22.061Z,100655.88
2022-10-20T14:45:17.421Z,100658.53
2022-10-20T14:48:13.535Z,100649.97
2022-10-20T14:51:25.522Z,100658.38
2022-10-20T14:54:17.377Z,100656.78
2022-10-20T14:57:10.450Z,100642.25
2022-10-20T15:00:21.718Z,100646.72
2022-10-20T15:03:14.667Z,100650.56
2022-10-20T15:06:04.867Z,100647.81
2022-10-20T15:11:49.809Z,100644.34
2022-10-20T15:20:40.577Z,100635.44
2022-10-20T15:26:24.574Z,100632.00
2022-10-20T15:29:12.681Z,100627.63
2022-10-20T15:32:06.704Z,100631.66
2022-10-20T15:35:00.549Z,100624.97
2022-10-20T15:37:54.572Z,100636.69
2022-10-20T15:40:46.762Z,100634.72
2022-10-20T15:43:38.951Z,100635.75
2022-10-20T15:46:29.987Z,100635.44
2022-10-20T15:49:17.417Z,100626.97
2022-10-20T15:52:09.489Z,100627.31
2022-10-20T15:54:58.541Z,100627.34
2022-10-20T15:57:48.552Z,100629.28
2022-10-20T16:00:38.711Z,100632.03
2022-10-20T16:03:36.528Z,100642.38
2022-10-20T16:06:25.061Z,100640.44
2022-10-20T16:09:16.149Z,100633.69
2022-10-20T16:12:11.621Z,100637.50
2022-10-20T16:15:02.554Z,100636.53
2022-10-20T16:18:03.538Z,100637.34
2022-10-20T16:21:00.562Z,100639.31
2022-10-20T16:23:54.250Z,100633.87
2022-10-20T16:26:49.997Z,100630.75
2022-10-20T16:29:40.511Z,100636.75
2022-10-20T16:35:42.555Z,100643.72
2022-10-20T16:38:40.106Z,100638.34
2022-10-20T16:41:28.247Z,100641.78
2022-10-20T16:44:30.881Z,100643.03
2022-10-20T16:47:28.593Z,100646.59
2022-10-20T16:50:23.570Z,100654.63
2022-10-20T16:53:27.573Z,100652.84
2022-10-20T17:02:07.797Z,100645.91
2022-10-20T17:04:59.508Z,100641.75
2022-10-20T17:07:47.937Z,100647.00
2022-10-20T17:10:46.653Z,100649.53
2022-10-20T17:13:35.822Z,100648.66
2022-10-20T17:19:44.500Z,100654.53
2022-10-20T17:22:41.528Z,100645.41
2022-10-20T17:25:45.731Z,100645.31
2022-10-20T17:28:42.561Z,100648.16
2022-10-20T17:31:42.765Z,100650.31
2022-10-20T17:34:52.429Z,100650.50
2022-10-20T17:37:42.566Z,100651.03
2022-10-20T17:40:39.531Z,100647.09
2022-10-20T17:43:54.853Z,100646.38
2022-10-20T17:46:44.594Z,100656.69
2022-10-20T17:52:34.087Z,100653.34
2022-10-20T17:55:28.557Z,100666.38
2022-10-20T17:58:16.519Z,100667.84
2022-10-20T18:01:19.612Z,100656.00
2022-10-20T18:04:13.755Z,100659.12
2022-10-20T18:07:10.769Z,100663.81
2022-10-20T18:10:04.555Z,100663.09
2022-10-20T18:15:46.604Z,100656.94
2022-10-20T18:18:35.539Z,100648.00
2022-10-20T18:21:22.757Z,100658.56
2022-10-20T18:24:21.586Z,100650.09
2022-10-20T18:30:11.485Z,100661.00
2022-10-20T18:36:08.280Z,100659.72
2022-10-20T18:42:12.548Z,100651.66
2022-10-20T18:45:09.398Z,100651.50
2022-10-20T18:48:00.122Z,100656.78
2022-10-20T18:51:04.601Z,100655.56
2022-10-20T18:54:07.518Z,100662.78
2022-10-20T18:57:09.547Z,100653.87
2022-10-20T19:00:09.858Z,100644.31
2022-10-20T19:03:02.499Z,100646.19
2022-10-20T19:06:05.737Z,100655.31
2022-10-20T19:09:00.539Z,100661.97
2022-10-20T19:11:57.542Z,100654.25
2022-10-20T19:14:45.512Z,100654.25
2022-10-20T19:20:38.501Z,100658.63
2022-10-20T19:23:37.011Z,100665.13
2022-10-20T19:26:35.238Z,100653.34
2022-10-20T19:29:36.671Z,100664.31
2022-10-20T19:32:25.461Z,100661.38
2022-10-20T19:38:07.844Z,100647.94
2022-10-20T19:43:54.652Z,100652.34
2022-10-20T19:52:59.003Z,100658.09
2022-10-20T19:55:53.600Z,100662.75
2022-10-20T19:58:48.473Z,100672.03
2022-10-20T20:01:38.500Z,100662.47
2022-10-20T20:04:29.991Z,100664.37
2022-10-20T20:07:26.759Z,100654.00
2022-10-20T20:10:13.842Z,100654.50
2022-10-20T20:13:08.526Z,100659.75
2022-10-20T20:16:04.872Z,100653.47
2022-10-20T20:18:54.729Z,100652.34
2022-10-20T20:21:43.825Z,100670.31
2022-10-20T20:24:36.596Z,100664.31
2022-10-20T20:27:25.726Z,100666.53
2022-10-20T20:30:12.197Z,100670.59
2022-10-20T20:32:59.770Z,100669.84
2022-10-20T20:35:50.566Z,100664.56
2022-10-20T20:38:44.561Z,100670.87
2022-10-20T20:44:31.921Z,100660.09
2022-10-20T20:47:22.531Z,100659.41
2022-10-20T20:50:16.454Z,100668.16
2022-10-20T20:53:12.538Z,100658.53
2022-10-20T20:56:04.962Z,100665.69
2022-10-20T20:58:55.102Z,100667.03
2022-10-20T21:01:45.178Z,100662.69
2022-10-20T21:04:34.002Z,100665.47
2022-10-20T21:07:20.317Z,100660.84
2022-10-20T21:10:14.321Z,100658.56
2022-10-20T21:16:10.397Z,100663.22
2022-10-20T21:18:58.669Z,100656.34
2022-10-20T21:21:50.587Z,100656.03
2022-10-20T21:24:37.513Z,100653.66
2022-10-20T21:27:23.917Z,100649.69
2022-10-20T21:30:13.437Z,100653.41
2022-10-20T21:33:01.187Z,100657.75
2022-10-20T21:35:53.287Z,100664.56
2022-10-20T21:38:44.574Z,100660.47
2022-10-20T21:41:32.176Z,100664.00
2022-10-20T21:44:18.798Z,100659.34
2022-10-20T21:47:06.620Z,100658.13
2022-10-20T21:49:54.551Z,100653.03
2022-10-20T21:52:40.906Z,100648.06
2022-10-20T21:55:27.161Z,100653.13
2022-10-20T21:58:13.737Z,100654.97
2022-10-20T22:01:00.212Z,100651.72
2022-10-20T22:03:48.729Z,100645.72
2022-10-20T22:06:37.030Z,100652.81
2022-10-20T22:09:32.847Z,100649.47
2022-10-20T22:12:20.371Z,100647.72
2022-10-20T22:15:08.866Z,100652.88
2022-10-20T22:17:54.887Z,100646.28
2022-10-20T22:20:41.687Z,100651.13
2022-10-20T22:23:28.695Z,100644.59
2022-10-20T22:26:14.944Z,100648.47
2022-10-20T22:29:01.159Z,100648.47
2022-10-20T22:31:47.594Z,100650.56
2022-10-20T22:34:33.274Z,100659.81
2022-10-20T22:37:21.150Z,100654.88
2022-10-20T22:40:07.614Z,100661.31
2022-10-20T22:42:53.910Z,100656.25
2022-10-20T22:45:40.686Z,100651.66
2022-10-20T22:48:26.847Z,100651.44
2022-10-20T22:51:14.001Z,100650.56
2022-10-20T22:54:00.355Z,100656.91
2022-10-20T22:56:46.456Z,100655.53
2022-10-20T22:59:34.863Z,100652.47
2022-10-20T23:02:21.741Z,100646.13
2022-10-20T23:05:14.634Z,100636.38
2022-10-20T23:08:01.603Z,100644.09
2022-10-20T23:10:58.033Z,100638.22
2022-10-20T23:13:44.159Z,100636.38
2022-10-20T23:16:30.744Z,100620.00
2022-10-20T23:19:16.874Z,100621.91
2022-10-20T23:22:06.643Z,100626.09
2022-10-20T23:24:52.817Z,100623.44
2022-10-20T23:27:39.658Z,100639.75
2022-10-20T23:30:26.236Z,100632.69
2022-10-20T23:33:13.756Z,100643.84
2022-10-20T23:35:59.610Z,100630.37
2022-10-20T23:38:50.073Z,100637.72
2022-10-20T23:41:41.338Z,100629.19
2022-10-20T23:44:27.844Z,100638.69
2022-10-20T23:47:14.821Z,100633.63
2022-10-20T23:50:04.745Z,100615.50
2022-10-20T23:52:51.976Z,100628.75
2022-10-20T23:55:38.780Z,100625.66
2022-10-20T23:58:26.156Z,100631.50
